Terminal Aerodrome Forecast
Issued by NWS

Home | Current Version | Previous Version | Graphics & Text | Print | Product List | Glossary On
Versions: 1 2 3 4 5 6 7 8 9 10 11 12 13 14 15 16 17 18 19 20 21 22
600
FTUS43 KBIS 152346
TAFMOT
TAF
KMOT 152346Z 1600/1624 02006KT P6SM OVC015
     FM160200 08006KT P6SM OVC014
     FM160400 11008KT P6SM OVC012
     FM160700 11009KT 1SM BR OVC010
     FM161000 12011KT 2SM BR BKN004 OVC008
     FM161600 13017G25KT P6SM SCT015 BKN040=

USA.gov is the U.S. government's official web portal to all federal, state and local government web resources and services.